Home   Weather   USA   La Crosse   Past weeks
Flag for USA

Past Weather in La Crosse, Wisconsin, USA — Yesterday and Last 2 Weeks

Currently: 62 °F. Partly cloudy. (Weather station: La Crosse Municipal Airport, USA). See more current weather

Past Weather in La Crosse — Graph

°F

La Crosse Temperature Yesterday

Maximum temperature yesterday: 77 °F (at 2:53 pm)
Minimum temperature yesterday: 61 °F (at 5:53 am)
Average temperature yesterday: 69 °F

High & Low Weather Summary for the Past Weeks

 TemperatureHumidityPressure
High98 °F (Jun 10, 4:53 pm)93% (Jun 17, 11:23 pm)30.13 "Hg (Jun 17, 11:23 pm)
Low60 °F (Jun 13, 2:53 am)19% (Jun 13, 3:53 pm)29.47 "Hg (Jun 20, 6:53 pm)
Average79 °F57%29.84 "Hg
* Reported Jun 6 1:53 am — Jun 21 1:53 am, La Crosse. Weather by CustomWeather, © 2021

Note: Actual official high and low records may vary slightly from our data, if they occured in-between our weather recording intervals... More about our weather records

La Crosse Weather History for the Previous 24 Hours

Scroll right to see more
 ConditionsComfort  
Time TempWeatherWind HumidityBarometerVisibility
1:53 am
Mon, Jun 21
63 °FOvercast.18 mph81%29.61 "Hg10 mi
12:53 am63 °FMostly cloudy.16 mph81%29.57 "Hg10 mi
11:53 pm
Sun, Jun 20
64 °FOvercast.25 mph81%29.52 "Hg10 mi
11:13 pm68 °FOvercast.26 mph82%29.51 "Hg10 mi
11:02 pm69 °FMostly cloudy.21 mph81%29.51 "Hg10 mi
10:53 pm70 °FOvercast.24 mph81%29.49 "Hg10 mi
10:09 pm71 °FMostly cloudy.14 mph87%29.50 "Hg10 mi
9:53 pm70 °FOvercast.8 mph90%29.48 "Hg10 mi
8:53 pm71 °FLight rain. Mostly cloudy.3 mph84%29.48 "Hg6 mi
8:19 pm71 °FBroken clouds.12 mph87%29.48 "Hg10 mi
7:53 pm71 °FMostly cloudy.7 mph87%29.47 "Hg10 mi
6:53 pm71 °FPassing clouds.12 mph90%29.47 "Hg10 mi
6:03 pm70 °FLight rain. Fog.14 mph87%29.52 "Hg4 mi
5:53 pm71 °FRain. Cloudy.12 mph84%29.52 "Hg4 mi
4:53 pm74 °FBroken clouds.18 mph67%29.49 "Hg10 mi
4:01 pm75 °FCloudy.12 mph66%29.55 "Hg10 mi
3:29 pm75 °FMostly cloudy.18 mph66%29.57 "Hg10 mi
2:53 pm77 °FPartly sunny.14 mph62%29.57 "Hg10 mi
1:53 pm74 °FOvercast.9 mph67%29.59 "Hg10 mi
12:53 pm72 °FMostly cloudy.8 mph71%29.59 "Hg10 mi
11:53 am70 °FLight rain. Overcast.7 mph76%29.63 "Hg10 mi
10:53 am68 °FPartly sunny.6 mph78%29.66 "Hg10 mi
9:53 am67 °FLight rain. Overcast.3 mph79%29.69 "Hg10 mi
8:53 am65 °FSunny.5 mph85%29.68 "Hg10 mi
7:53 am64 °FSunny.7 mph84%29.70 "Hg10 mi
6:53 am63 °FSunny.5 mph84%29.72 "Hg10 mi
5:53 am61 °FSunny.3 mph87%29.72 "Hg10 mi
4:53 am62 °FClear.No wind86%29.68 "Hg10 mi
3:53 am62 °FClear.3 mph86%29.71 "Hg10 mi
Weather by CustomWeather, © 2021

See weather overview